Time;durP1;ratioP1;P1;durP2;ratioP2;P2;SDS_P1;SDS_P2;PMS_P1;PMS_P2;Temp;Humidity;BMP_temperature;BMP_pressure;BME280_temperature;BME280_humidity;BME280_pressure;Samples;Min_cycle;Max_cycle;Signal;HPM_P1;HPM_P2
2023/01/30 00:00:25;;;;;;;37.67;18.70;;;-2.80;99.90;;;;;;5076457;28;20027;-85
2023/01/30 00:02:50;;;;;;;42.75;19.45;;;-2.80;99.90;;;;;;5076433;28;20461;-83
2023/01/30 00:05:16;;;;;;;39.85;16.85;;;-2.80;99.90;;;;;;5074381;28;20039;-85
2023/01/30 00:07:42;;;;;;;36.92;18.23;;;-2.80;99.90;;;;;;5076100;28;20108;-85
2023/01/30 00:10:08;;;;;;;36.25;17.55;;;-2.80;99.90;;;;;;5076150;28;20055;-85
2023/01/30 00:12:33;;;;;;;36.90;19.02;;;-2.80;99.90;;;;;;5076161;28;20439;-83
2023/01/30 00:14:59;;;;;;;44.10;19.63;;;-2.80;99.90;;;;;;5076032;28;20092;-85
2023/01/30 00:17:24;;;;;;;36.47;18.92;;;-2.80;99.90;;;;;;5074725;28;20413;-83
2023/01/30 00:19:50;;;;;;;33.13;17.35;;;-2.90;99.90;;;;;;5075978;28;20079;-85
2023/01/30 00:22:15;;;;;;;40.22;19.25;;;-2.80;99.90;;;;;;5076125;28;20056;-83
2023/01/30 00:24:41;;;;;;;39.78;19.80;;;-2.90;99.90;;;;;;5074498;28;20081;-85
2023/01/30 00:27:07;;;;;;;34.95;18.95;;;-2.90;99.90;;;;;;5076237;28;20374;-85
2023/01/30 00:29:32;;;;;;;39.15;19.60;;;-2.90;99.90;;;;;;5075616;28;20081;-83
2023/01/30 00:31:58;;;;;;;32.13;17.20;;;-2.90;99.90;;;;;;5074559;28;20024;-83
2023/01/30 00:34:23;;;;;;;36.25;19.10;;;-2.90;99.90;;;;;;5074290;28;20027;-83
2023/01/30 00:36:49;;;;;;;36.78;18.55;;;-2.90;99.90;;;;;;5074484;28;20028;-83
2023/01/30 00:39:14;;;;;;;40.30;16.80;;;-2.90;99.90;;;;;;5075871;28;20021;-83
2023/01/30 00:47:08;;;;;;;34.97;17.00;;;-2.90;99.90;;;;;;5076029;28;20047;-83
2023/01/30 00:49:35;;;;;;;34.90;16.52;;;-2.90;99.90;;;;;;5074410;28;20025;-85
2023/01/30 00:52:01;;;;;;;33.03;18.20;;;-2.90;99.90;;;;;;5074014;28;20039;-83
2023/01/30 00:54:27;;;;;;;34.17;16.77;;;-2.90;99.90;;;;;;5074251;28;20020;-83
2023/01/30 00:56:52;;;;;;;35.47;17.13;;;-2.90;99.90;;;;;;5075189;28;20036;-83
2023/01/30 00:59:18;;;;;;;33.38;16.77;;;-2.90;99.90;;;;;;5075046;28;20028;-86
2023/01/30 01:01:43;;;;;;;36.45;17.48;;;-3.00;99.90;;;;;;5073001;28;20029;-85
2023/01/30 01:04:09;;;;;;;30.65;16.60;;;-3.00;99.90;;;;;;5074991;28;20039;-85
2023/01/30 01:06:36;;;;;;;30.67;15.20;;;-3.00;99.90;;;;;;5075002;28;20033;-83
2023/01/30 01:09:03;;;;;;;39.03;16.63;;;-3.10;99.90;;;;;;5074232;28;20055;-85
2023/01/30 01:11:28;;;;;;;25.80;15.05;;;-3.00;99.90;;;;;;5073610;28;20474;-83
2023/01/30 01:13:56;;;;;;;26.05;15.18;;;-3.00;99.90;;;;;;5073589;28;20089;-86
2023/01/30 01:16:22;;;;;;;29.27;14.63;;;-2.90;99.90;;;;;;5073586;28;20016;-86
2023/01/30 01:18:49;;;;;;;29.15;15.48;;;-3.00;99.90;;;;;;5073513;28;20135;-83
2023/01/30 01:21:15;;;;;;;30.45;14.75;;;-3.00;99.90;;;;;;5074725;28;20029;-83
2023/01/30 01:23:41;;;;;;;29.13;15.70;;;-3.00;99.90;;;;;;5073352;28;20504;-83
2023/01/30 01:26:06;;;;;;;27.30;13.98;;;-3.00;99.90;;;;;;5074474;28;20119;-83
2023/01/30 01:28:32;;;;;;;28.40;13.82;;;-2.90;99.90;;;;;;5074739;28;20079;-85
2023/01/30 01:30:57;;;;;;;30.50;15.93;;;-2.90;99.90;;;;;;5073279;28;20069;-83
2023/01/30 01:33:27;;;;;;;28.30;16.63;;;-3.00;99.90;;;;;;5074423;28;20027;-85
2023/01/30 01:35:56;;;;;;;32.80;16.10;;;-3.00;99.90;;;;;;5074509;28;20020;-84
2023/01/30 01:38:22;;;;;;;30.88;14.00;;;-3.10;99.90;;;;;;5074785;28;20118;-83
2023/01/30 01:41:06;;;;;;;27.25;14.88;;;-3.10;99.90;;;;;;5074769;28;20021;-85
2023/01/30 01:43:56;;;;;;;33.50;14.70;;;-3.00;99.90;;;;;;5073036;28;20028;-83
2023/01/30 01:46:38;;;;;;;32.92;15.63;;;-3.00;99.90;;;;;;5072726;28;20047;-85
2023/01/30 01:49:19;;;;;;;28.10;14.82;;;-3.00;99.90;;;;;;5074509;28;20017;-85
2023/01/30 01:51:53;;;;;;;30.15;16.35;;;-3.00;99.90;;;;;;5073080;28;20537;-83
2023/01/30 01:54:40;;;;;;;29.42;13.93;;;-3.00;99.90;;;;;;5074469;28;20017;-85
2023/01/30 01:57:13;;;;;;;28.33;14.85;;;-3.10;99.90;;;;;;5074216;28;20062;-83
2023/01/30 01:59:48;;;;;;;23.52;13.32;;;-3.10;99.90;;;;;;5072939;28;20024;-83
2023/01/30 02:02:15;;;;;;;22.13;12.35;;;-3.10;99.90;;;;;;5074139;28;20020;-83
2023/01/30 02:05:02;;;;;;;22.25;10.93;;;-3.10;99.90;;;;;;5072696;28;20028;-83
2023/01/30 02:07:33;;;;;;;20.77;12.27;;;-3.20;99.90;;;;;;5073135;28;20382;-83
2023/01/30 02:10:00;;;;;;;23.13;12.52;;;-3.10;99.90;;;;;;5072518;28;20462;-85
2023/01/30 02:12:25;;;;;;;16.65;10.70;;;-3.10;99.90;;;;;;5072397;28;20009;-83
2023/01/30 02:14:52;;;;;;;18.15;10.60;;;-3.30;99.90;;;;;;5072521;28;20024;-85
2023/01/30 02:17:19;;;;;;;17.85;9.95;;;-3.30;99.90;;;;;;5072473;28;20024;-83
2023/01/30 02:20:02;;;;;;;19.40;9.18;;;-3.40;99.90;;;;;;5086876;28;20040;-83
2023/01/30 02:23:07;;;;;;;18.90;10.15;;;-3.50;99.90;;;;;;5075998;28;20020;-85
2023/01/30 02:26:10;;;;;;;18.00;10.32;;;-3.70;99.90;;;;;;5075721;28;20088;-85
2023/01/30 02:28:56;;;;;;;18.83;10.25;;;-3.70;99.90;;;;;;5093853;28;20060;-83
2023/01/30 02:31:36;;;;;;;21.52;9.90;;;-3.70;99.90;;;;;;5075987;28;20059;-83
2023/01/30 02:34:40;;;;;;;19.60;10.95;;;-3.80;99.90;;;;;;5061268;28;20024;-86
2023/01/30 02:37:33;;;;;;;23.48;11.73;;;-3.80;99.90;;;;;;5011922;28;20038;-86
2023/01/30 02:40:08;;;;;;;20.73;10.40;;;-3.90;99.90;;;;;;4995183;28;20464;-83
2023/01/30 02:42:43;;;;;;;19.67;10.55;;;-4.00;99.90;;;;;;5038522;28;20033;-83
2023/01/30 02:45:25;;;;;;;19.92;11.27;;;-4.10;99.90;;;;;;5073471;28;20375;-83
2023/01/30 02:48:02;;;;;;;21.35;11.13;;;-4.10;99.90;;;;;;5073419;28;20471;-83
2023/01/30 02:50:47;;;;;;;18.77;12.57;;;-4.10;99.90;;;;;;5055273;28;20017;-84
2023/01/30 02:53:13;;;;;;;19.80;10.70;;;-4.10;99.90;;;;;;5055262;28;20115;-82
2023/01/30 02:55:48;;;;;;;17.95;11.63;;;-4.20;99.90;;;;;;5073143;28;20079;-85
2023/01/30 02:58:15;;;;;;;22.95;11.85;;;-4.20;99.90;;;;;;5055140;28;20044;-82
2023/01/30 03:01:02;;;;;;;21.83;11.98;;;-4.30;99.90;;;;;;5055174;28;20529;-82
2023/01/30 03:03:48;;;;;;;21.30;11.50;;;-4.20;99.90;;;;;;5055513;28;20032;-82
2023/01/30 03:06:36;;;;;;;18.92;9.73;;;-4.20;99.90;;;;;;5073122;28;20439;-82
2023/01/30 03:09:14;;;;;;;21.10;11.35;;;-4.20;99.90;;;;;;5073198;28;20017;-82
2023/01/30 03:11:42;;;;;;;20.48;10.63;;;-4.20;99.90;;;;;;5055133;28;20486;-85
2023/01/30 03:14:33;;;;;;;23.35;12.95;;;-4.10;99.90;;;;;;5055430;28;20398;-82
2023/01/30 03:17:03;;;;;;;21.77;12.60;;;-4.10;99.90;;;;;;5055101;28;20016;-85
2023/01/30 03:19:30;;;;;;;21.40;12.02;;;-4.10;99.90;;;;;;5065819;28;20040;-82
2023/01/30 03:21:55;;;;;;;23.65;11.77;;;-4.10;99.90;;;;;;5075062;28;20020;-83
2023/01/30 03:24:22;;;;;;;19.08;11.15;;;-4.00;99.90;;;;;;5094670;28;20102;-84
2023/01/30 03:26:53;;;;;;;22.75;12.77;;;-4.10;99.90;;;;;;5079017;28;20039;-85
2023/01/30 03:29:19;;;;;;;23.13;12.93;;;-4.00;99.90;;;;;;5079164;28;20059;-85
2023/01/30 03:31:45;;;;;;;20.75;11.95;;;-4.00;99.90;;;;;;5079098;28;20104;-85
2023/01/30 03:34:10;;;;;;;20.85;11.48;;;-4.00;99.90;;;;;;5078999;28;20016;-82
2023/01/30 03:36:36;;;;;;;21.80;12.18;;;-4.00;99.90;;;;;;5097052;28;20093;-85
2023/01/30 03:39:02;;;;;;;23.60;13.95;;;-4.10;99.90;;;;;;5078825;28;20487;-82
2023/01/30 03:41:28;;;;;;;19.23;9.90;;;-4.10;99.90;;;;;;5097450;28;20051;-82
2023/01/30 03:43:53;;;;;;;20.38;10.38;;;-4.10;99.90;;;;;;5078781;28;20016;-82
2023/01/30 03:46:19;;;;;;;21.58;11.60;;;-4.10;99.90;;;;;;5078600;28;20036;-82
2023/01/30 03:48:45;;;;;;;19.65;11.57;;;-4.10;99.90;;;;;;5078664;28;20032;-82
2023/01/30 03:51:10;;;;;;;23.08;12.88;;;-4.00;99.90;;;;;;5096771;28;20122;-82
2023/01/30 03:53:36;;;;;;;21.42;10.98;;;-4.00;99.90;;;;;;5078591;28;20071;-84
2023/01/30 03:56:01;;;;;;;22.45;12.57;;;-4.00;99.90;;;;;;5078520;28;20103;-84
2023/01/30 03:58:27;;;;;;;23.23;12.32;;;-4.00;99.90;;;;;;5078454;28;20028;-85
2023/01/30 04:00:56;;;;;;;20.83;11.23;;;-4.00;99.90;;;;;;5078596;28;20012;-85
2023/01/30 04:03:22;;;;;;;22.83;11.88;;;-4.00;99.90;;;;;;5078341;28;20484;-85
2023/01/30 04:05:48;;;;;;;23.83;13.88;;;-4.00;99.90;;;;;;5096599;28;20036;-84
2023/01/30 04:08:14;;;;;;;21.98;12.70;;;-3.90;99.90;;;;;;5078352;28;20150;-84
2023/01/30 04:10:39;;;;;;;22.48;11.45;;;-3.90;99.90;;;;;;5078143;28;20030;-83
2023/01/30 04:13:05;;;;;;;24.83;12.02;;;-3.90;99.90;;;;;;5078299;28;20016;-85
2023/01/30 04:15:31;;;;;;;21.63;12.15;;;-3.90;99.90;;;;;;5078111;28;20022;-85
2023/01/30 04:17:57;;;;;;;23.05;11.68;;;-3.90;99.90;;;;;;5096365;28;20035;-86
2023/01/30 04:20:23;;;;;;;24.80;12.68;;;-3.90;99.90;;;;;;5075029;28;20052;-85
2023/01/30 04:22:49;;;;;;;22.23;11.90;;;-3.90;99.90;;;;;;5074596;28;20078;-85
2023/01/30 04:25:28;;;;;;;23.45;11.68;;;-3.80;99.90;;;;;;5090834;28;20389;-84
2023/01/30 04:27:54;;;;;;;19.45;12.13;;;-3.80;99.90;;;;;;5089892;28;20077;-81
2023/01/30 04:30:20;;;;;;;19.92;10.82;;;-3.80;99.90;;;;;;5091095;28;20520;-83
2023/01/30 04:32:45;;;;;;;17.80;10.55;;;-3.80;99.90;;;;;;5090808;28;20078;-81
2023/01/30 04:35:11;;;;;;;17.30;10.20;;;-3.80;99.90;;;;;;5091123;28;20032;-81
2023/01/30 04:37:37;;;;;;;22.73;10.63;;;-3.80;99.90;;;;;;5090685;28;20069;-81
2023/01/30 04:40:03;;;;;;;20.98;11.77;;;-3.80;99.90;;;;;;5089319;28;20016;-81
2023/01/30 04:42:28;;;;;;;16.65;11.27;;;-3.80;99.90;;;;;;5089618;28;20023;-83
2023/01/30 04:44:54;;;;;;;18.05;11.15;;;-3.70;99.90;;;;;;5089045;28;20036;-81
2023/01/30 04:47:19;;;;;;;17.88;11.50;;;-3.70;99.90;;;;;;5090465;28;20081;-83
2023/01/30 04:49:45;;;;;;;20.33;11.27;;;-3.70;99.90;;;;;;5090555;28;20043;-83
2023/01/30 04:52:10;;;;;;;21.77;11.13;;;-3.70;99.90;;;;;;5090500;28;20028;-82
2023/01/30 04:54:36;;;;;;;20.65;11.32;;;-3.70;99.90;;;;;;5089055;28;20027;-84
2023/01/30 04:57:02;;;;;;;19.05;10.88;;;-3.70;99.90;;;;;;5090630;28;20510;-84
2023/01/30 04:59:27;;;;;;;19.60;11.20;;;-3.70;99.90;;;;;;5088980;28;20031;-84
2023/01/30 05:01:53;;;;;;;23.55;11.20;;;-3.70;99.90;;;;;;5090603;28;20074;-84
2023/01/30 05:04:19;;;;;;;19.23;10.32;;;-3.70;99.90;;;;;;5088770;28;20509;-83
2023/01/30 05:06:44;;;;;;;14.70;10.10;;;-3.60;99.90;;;;;;5090146;28;20487;-83
2023/01/30 05:09:10;;;;;;;18.17;9.05;;;-3.70;99.90;;;;;;5088756;28;20028;-81
2023/01/30 05:11:37;;;;;;;18.90;10.25;;;-3.60;99.90;;;;;;5088750;28;20024;-82
2023/01/30 05:14:02;;;;;;;17.52;10.10;;;-3.60;99.90;;;;;;5088613;28;20027;-82
2023/01/30 05:16:28;;;;;;;18.83;9.73;;;-3.50;99.90;;;;;;5088513;28;20394;-84
2023/01/30 05:18:53;;;;;;;19.23;10.80;;;-3.60;99.90;;;;;;5088514;28;20389;-82
2023/01/30 05:21:22;;;;;;;20.15;10.32;;;-3.60;99.90;;;;;;5089844;28;20024;-84
2023/01/30 05:23:49;;;;;;;25.55;11.05;;;-3.60;99.90;;;;;;5089493;28;20391;-84
2023/01/30 05:26:15;;;;;;;24.52;10.93;;;-3.60;99.90;;;;;;5090018;28;20021;-82
2023/01/30 05:28:42;;;;;;;16.40;9.48;;;-3.60;99.90;;;;;;5089771;28;20077;-82
2023/01/30 05:31:10;;;;;;;24.27;11.65;;;-3.50;99.90;;;;;;5089665;28;20030;-83
2023/01/30 05:33:36;;;;;;;19.23;10.15;;;-3.50;99.90;;;;;;5088265;28;20023;-81
2023/01/30 05:36:02;;;;;;;17.80;11.30;;;-3.50;99.90;;;;;;5080868;28;20155;-83
2023/01/30 05:38:28;;;;;;;22.60;11.38;;;-3.50;99.90;;;;;;5075902;28;20056;-82
2023/01/30 05:41:02;;;;;;;18.20;9.55;;;-3.50;99.90;;;;;;5074638;28;20013;-84
2023/01/30 05:43:28;;;;;;;20.65;10.48;;;-3.50;99.90;;;;;;5075874;28;20033;-83
2023/01/30 05:45:55;;;;;;;21.33;11.27;;;-3.50;99.90;;;;;;5075995;28;20099;-83
2023/01/30 05:48:22;;;;;;;18.50;10.10;;;-3.60;99.90;;;;;;5074506;28;20039;-81
2023/01/30 05:50:50;;;;;;;23.42;11.35;;;-3.60;99.90;;;;;;5074330;28;20482;-84
2023/01/30 05:53:16;;;;;;;29.50;13.55;;;-3.50;99.90;;;;;;5074319;28;20103;-82
2023/01/30 05:55:42;;;;;;;22.55;12.55;;;-3.50;99.90;;;;;;5075636;28;20013;-84
2023/01/30 05:58:09;;;;;;;29.58;10.95;;;-3.50;99.90;;;;;;5074616;28;20070;-84
2023/01/30 06:00:34;;;;;;;21.88;12.07;;;-3.50;99.90;;;;;;5075609;28;20021;-84
2023/01/30 06:03:00;;;;;;;21.27;11.55;;;-3.50;99.90;;;;;;5074386;28;20123;-81
2023/01/30 06:05:25;;;;;;;17.20;10.32;;;-3.50;99.90;;;;;;5074129;28;20044;-81
2023/01/30 06:07:51;;;;;;;20.48;12.10;;;-3.50;99.90;;;;;;5075440;28;20099;-82
2023/01/30 06:10:16;;;;;;;22.48;11.88;;;-3.40;99.90;;;;;;5074454;28;20366;-83
2023/01/30 06:12:42;;;;;;;25.70;11.23;;;-3.40;99.90;;;;;;5074042;28;20381;-81
2023/01/30 06:15:09;;;;;;;19.85;11.60;;;-3.40;99.90;;;;;;5074117;28;20528;-81
2023/01/30 06:17:34;;;;;;;21.20;11.13;;;-3.40;99.90;;;;;;5075237;28;20541;-81
2023/01/30 06:20:00;;;;;;;23.20;12.90;;;-3.40;99.90;;;;;;5073950;28;20116;-81
2023/01/30 06:22:25;;;;;;;27.55;13.95;;;-3.40;99.90;;;;;;5074102;28;20021;-81
2023/01/30 06:24:51;;;;;;;20.83;11.90;;;-3.40;99.90;;;;;;5073512;28;20052;-84
2023/01/30 06:27:16;;;;;;;30.00;14.52;;;-3.30;99.90;;;;;;5073839;28;20017;-83
2023/01/30 06:29:42;;;;;;;24.05;14.13;;;-3.30;99.90;;;;;;5075016;28;20103;-83
2023/01/30 06:32:08;;;;;;;21.85;12.02;;;-3.30;99.90;;;;;;5074165;28;20013;-82
2023/01/30 06:34:34;;;;;;;18.95;12.57;;;-3.30;99.90;;;;;;5075184;28;20040;-83
2023/01/30 06:36:59;;;;;;;29.27;12.68;;;-3.30;99.90;;;;;;5073549;28;20025;-81
2023/01/30 06:39:25;;;;;;;28.77;13.55;;;-3.30;99.90;;;;;;5073582;28;20024;-82
2023/01/30 06:41:50;;;;;;;21.05;11.85;;;-3.30;99.90;;;;;;5074767;28;20033;-83
2023/01/30 06:44:17;;;;;;;21.38;11.48;;;-3.30;99.90;;;;;;5074609;28;20059;-81
2023/01/30 06:46:42;;;;;;;19.75;12.38;;;-3.30;99.90;;;;;;5072671;28;20012;-83
2023/01/30 06:49:08;;;;;;;22.42;12.18;;;-3.20;99.90;;;;;;5074286;28;20028;-81
2023/01/30 06:51:34;;;;;;;23.15;11.20;;;-3.20;99.90;;;;;;5066462;28;20021;-82
2023/01/30 06:53:59;;;;;;;26.98;13.55;;;-3.20;99.90;;;;;;5053034;28;20471;-81
2023/01/30 06:56:25;;;;;;;21.70;11.63;;;-3.20;99.90;;;;;;5057088;28;20025;-81
2023/01/30 06:58:50;;;;;;;30.23;13.27;;;-3.20;99.90;;;;;;5063799;28;20032;-83
2023/01/30 07:01:17;;;;;;;23.80;12.52;;;-3.20;99.90;;;;;;5063393;28;20013;-81
2023/01/30 07:03:43;;;;;;;22.05;11.48;;;-3.20;99.90;;;;;;5054313;28;20061;-83
2023/01/30 07:06:09;;;;;;;21.33;11.32;;;-3.20;99.90;;;;;;5053409;28;20067;-81
2023/01/30 07:08:34;;;;;;;23.73;12.00;;;-3.10;99.90;;;;;;5058030;28;20047;-81
2023/01/30 07:11:00;;;;;;;22.23;11.98;;;-3.10;99.90;;;;;;5072749;28;20060;-83
2023/01/30 07:13:26;;;;;;;24.85;14.45;;;-3.10;99.90;;;;;;5073075;28;20029;-83
2023/01/30 07:15:51;;;;;;;24.98;12.63;;;-3.10;99.90;;;;;;5073990;28;20027;-81
2023/01/30 07:18:17;;;;;;;26.83;13.23;;;-3.10;99.90;;;;;;5066871;28;20033;-81
2023/01/30 07:20:46;;;;;;;26.70;12.68;;;-3.10;99.90;;;;;;5053520;28;20036;-81
2023/01/30 07:23:12;;;;;;;35.35;15.40;;;-3.10;99.90;;;;;;5052521;28;20032;-84
2023/01/30 07:25:37;;;;;;;23.15;11.85;;;-3.10;99.90;;;;;;5055618;28;20029;-84
2023/01/30 07:28:03;;;;;;;22.77;13.23;;;-3.00;99.90;;;;;;5052533;28;20031;-84
2023/01/30 07:30:31;;;;;;;26.92;12.90;;;-3.00;99.90;;;;;;5053774;28;20032;-83
2023/01/30 07:32:58;;;;;;;22.02;12.55;;;-2.90;99.90;;;;;;5051590;28;20020;-81
2023/01/30 07:35:26;;;;;;;20.95;11.65;;;-2.90;99.90;;;;;;5053203;28;20060;-81
2023/01/30 07:37:52;;;;;;;20.77;12.27;;;-2.90;99.90;;;;;;5071494;28;20060;-81
2023/01/30 07:40:19;;;;;;;26.17;13.85;;;-2.80;99.90;;;;;;5072011;28;20028;-81
2023/01/30 07:43:21;;;;;;;19.45;11.13;;;-2.90;99.90;;;;;;5072069;28;20021;-81
2023/01/30 07:45:47;;;;;;;31.40;13.40;;;-2.90;99.90;;;;;;5071434;28;20142;-84
2023/01/30 07:48:17;;;;;;;23.20;11.73;;;-2.80;99.90;;;;;;5073104;28;20040;-83
2023/01/30 07:50:44;;;;;;;20.45;11.45;;;-2.80;99.90;;;;;;5070674;28;20389;-81
2023/01/30 07:53:12;;;;;;;22.83;13.77;;;-2.80;99.90;;;;;;5069621;28;20014;-81
2023/01/30 07:55:39;;;;;;;27.48;15.50;;;-2.70;99.90;;;;;;5070745;28;20017;-84
2023/01/30 07:58:04;;;;;;;36.85;15.60;;;-2.70;99.40;;;;;;5068934;28;20031;-87
2023/01/30 08:00:31;;;;;;;27.13;13.70;;;-2.60;99.30;;;;;;5070527;28;20016;-83
2023/01/30 08:02:57;;;;;;;28.20;15.13;;;-2.60;98.50;;;;;;5070580;28;20397;-83
2023/01/30 08:05:23;;;;;;;21.50;13.15;;;-2.50;98.50;;;;;;5069352;28;20381;-81
2023/01/30 08:07:48;;;;;;;20.58;11.75;;;-2.50;98.00;;;;;;5072488;28;20019;-82
2023/01/30 08:10:14;;;;;;;21.33;13.02;;;-2.50;96.50;;;;;;5071707;28;20013;-84
2023/01/30 08:12:40;;;;;;;24.48;13.90;;;-2.50;96.40;;;;;;5071729;28;20021;-84
2023/01/30 08:15:08;;;;;;;25.10;11.77;;;-2.50;95.70;;;;;;5071631;28;20505;-81
2023/01/30 08:17:33;;;;;;;26.55;13.57;;;-2.50;96.00;;;;;;5071689;28;20032;-80
2023/01/30 08:19:59;;;;;;;30.30;15.68;;;-2.40;96.90;;;;;;5072903;28;20031;-80
2023/01/30 08:22:24;;;;;;;21.67;12.85;;;-2.40;96.40;;;;;;5071872;28;20027;-81
2023/01/30 08:24:50;;;;;;;19.35;11.40;;;-2.40;97.00;;;;;;5071505;28;20052;-84
2023/01/30 08:27:16;;;;;;;25.60;11.07;;;-2.40;95.10;;;;;;5072322;28;20066;-84
2023/01/30 08:29:42;;;;;;;20.02;11.63;;;-2.30;94.80;;;;;;5071374;28;20028;-84
2023/01/30 08:32:08;;;;;;;26.88;12.48;;;-2.30;95.00;;;;;;5071468;28;20025;-83
2023/01/30 08:34:34;;;;;;;22.05;11.55;;;-2.30;95.00;;;;;;5072418;28;20021;-84
2023/01/30 08:37:00;;;;;;;24.05;12.50;;;-2.30;94.80;;;;;;5072977;28;20025;-84
2023/01/30 08:39:26;;;;;;;22.67;11.65;;;-2.30;94.30;;;;;;5071368;28;20095;-83
2023/01/30 08:41:51;;;;;;;17.45;10.82;;;-2.20;94.80;;;;;;5072932;28;20465;-81
2023/01/30 08:44:17;;;;;;;22.27;10.98;;;-2.20;94.10;;;;;;5072488;28;20041;-83
2023/01/30 08:46:42;;;;;;;27.40;13.30;;;-2.10;94.20;;;;;;5071316;28;20017;-81
2023/01/30 08:49:10;;;;;;;24.33;11.68;;;-2.10;93.10;;;;;;5072554;28;20028;-82
2023/01/30 08:51:35;;;;;;;23.17;12.65;;;-2.10;93.50;;;;;;5072552;28;20025;-84
2023/01/30 08:54:01;;;;;;;22.85;11.93;;;-2.10;93.60;;;;;;5071481;28;20032;-81
2023/01/30 08:56:26;;;;;;;21.55;12.35;;;-2.10;93.20;;;;;;5071535;28;20025;-84
2023/01/30 08:58:52;;;;;;;22.63;12.30;;;-2.10;92.20;;;;;;5071451;28;20139;-81
2023/01/30 09:01:18;;;;;;;30.08;12.98;;;-2.00;92.30;;;;;;5071233;28;20013;-81
2023/01/30 09:03:43;;;;;;;22.17;11.23;;;-2.10;91.90;;;;;;5072239;28;20090;-81
2023/01/30 09:06:09;;;;;;;23.38;12.88;;;-2.00;92.00;;;;;;5071702;28;20459;-81
2023/01/30 09:08:34;;;;;;;25.48;12.38;;;-2.00;92.90;;;;;;5063291;28;20515;-87
2023/01/30 09:11:03;;;;;;;29.05;13.00;;;-2.00;92.20;;;;;;5056040;28;20032;-86
2023/01/30 09:13:29;;;;;;;22.02;11.00;;;-2.10;92.40;;;;;;5074149;28;20524;-85
2023/01/30 09:15:56;;;;;;;25.95;12.90;;;-2.00;93.20;;;;;;5075187;28;20123;-86
2023/01/30 09:18:22;;;;;;;22.23;12.43;;;-2.00;92.80;;;;;;5074705;28;20033;-82
2023/01/30 09:20:48;;;;;;;22.75;13.48;;;-1.90;93.60;;;;;;5062607;28;20057;-85
2023/01/30 09:23:13;;;;;;;24.35;12.55;;;-1.90;93.20;;;;;;5072748;28;20075;-83
2023/01/30 09:25:39;;;;;;;24.67;12.52;;;-1.80;93.80;;;;;;5073718;28;20017;-83
2023/01/30 09:28:05;;;;;;;22.55;12.13;;;-1.80;93.10;;;;;;5074806;28;20047;-85
2023/01/30 09:30:30;;;;;;;23.75;11.77;;;-1.80;93.50;;;;;;5074717;28;20017;-87
2023/01/30 09:32:57;;;;;;;22.30;12.23;;;-1.80;94.70;;;;;;5042599;28;20099;-85
2023/01/30 09:35:22;;;;;;;25.60;12.35;;;-1.80;95.60;;;;;;5052901;28;20082;-86
2023/01/30 09:37:52;;;;;;;23.48;13.77;;;-1.80;98.40;;;;;;5053771;28;20029;-85
2023/01/30 09:40:21;;;;;;;29.25;14.05;;;-1.80;99.90;;;;;;5054794;28;20060;-85
2023/01/30 09:43:05;;;;;;;25.67;12.75;;;-1.80;99.90;;;;;;5053160;28;20044;-85
2023/01/30 09:45:36;;;;;;;22.00;13.13;;;-1.90;99.90;;;;;;5054070;28;20029;-85
2023/01/30 09:48:19;;;;;;;25.90;13.60;;;-1.80;99.90;;;;;;5053127;28;20021;-85
2023/01/30 09:51:18;;;;;;;25.67;14.68;;;-1.90;99.90;;;;;;5053289;28;20112;-86
2023/01/30 09:53:52;;;;;;;26.25;13.10;;;-1.90;99.90;;;;;;5064366;28;20525;-85
2023/01/30 09:56:18;;;;;;;23.55;12.77;;;-1.90;99.90;;;;;;5072688;28;20138;-85
2023/01/30 09:58:54;;;;;;;22.00;12.82;;;-1.90;99.90;;;;;;5074357;28;20493;-85
2023/01/30 10:01:24;;;;;;;22.08;13.20;;;-1.90;99.90;;;;;;5072507;28;20067;-85
2023/01/30 10:04:04;;;;;;;30.95;13.52;;;-1.90;99.90;;;;;;5072130;28;20405;-86
2023/01/30 10:06:35;;;;;;;27.27;13.60;;;-1.80;99.90;;;;;;5072883;28;20044;-85
2023/01/30 10:09:12;;;;;;;24.52;13.98;;;-1.80;99.90;;;;;;5073323;28;20055;-83
2023/01/30 10:11:47;;;;;;;23.15;11.93;;;-1.80;99.90;;;;;;5072513;28;20533;-83
2023/01/30 10:14:49;;;;;;;22.92;13.93;;;-1.80;99.90;;;;;;5072399;28;20036;-86
2023/01/30 10:17:51;;;;;;;20.65;11.55;;;-1.80;99.90;;;;;;5073000;28;20042;-86
2023/01/30 10:20:35;;;;;;;24.50;13.00;;;-1.80;99.90;;;;;;5073438;28;20041;-85
2023/01/30 10:23:38;;;;;;;18.75;11.43;;;-1.80;99.90;;;;;;5066439;28;20378;-86
2023/01/30 10:26:10;;;;;;;27.48;12.35;;;-1.80;99.90;;;;;;5054036;28;20041;-86
2023/01/30 10:29:04;;;;;;;21.30;13.15;;;-1.80;99.90;;;;;;5053237;28;20360;-86
2023/01/30 10:31:43;;;;;;;29.02;12.90;;;-1.90;99.90;;;;;;5058782;28;20494;-83
2023/01/30 10:34:18;;;;;;;26.23;13.55;;;-1.80;99.90;;;;;;5064271;28;20433;-82
2023/01/30 10:36:58;;;;;;;22.02;13.05;;;-1.90;99.90;;;;;;5062093;28;20067;-83
2023/01/30 10:39:54;;;;;;;26.52;13.45;;;-1.80;99.90;;;;;;5065524;28;20032;-83
2023/01/30 10:42:28;;;;;;;22.60;12.13;;;-1.80;99.90;;;;;;5063887;28;20031;-82
2023/01/30 10:45:05;;;;;;;24.30;12.90;;;-1.80;99.90;;;;;;5072065;28;20139;-83
2023/01/30 10:47:33;;;;;;;23.73;12.15;;;-1.80;99.90;;;;;;5067219;28;20032;-83
2023/01/30 10:50:14;;;;;;;22.60;12.80;;;-1.70;99.90;;;;;;5059668;28;20037;-82
2023/01/30 10:53:29;;;;;;;21.65;11.88;;;-1.70;99.90;;;;;;5055254;28;20070;-83
2023/01/30 10:56:21;;;;;;;23.80;13.27;;;-1.70;99.90;;;;;;5053676;28;20071;-84
2023/01/30 10:59:14;;;;;;;21.40;12.65;;;-1.70;99.90;;;;;;5068699;28;20512;-84
2023/01/30 11:01:48;;;;;;;23.83;13.48;;;-1.70;99.90;;;;;;5073552;28;20020;-84
2023/01/30 11:04:49;;;;;;;28.77;13.63;;;-1.70;99.90;;;;;;5064109;27;20045;-83
2023/01/30 11:07:15;;;;;;;24.60;13.90;;;-1.70;99.90;;;;;;5062208;28;20104;-84
2023/01/30 11:09:46;;;;;;;27.85;14.73;;;-1.80;99.90;;;;;;5060398;28;20115;-84
2023/01/30 11:12:12;;;;;;;28.33;14.38;;;-1.80;99.90;;;;;;5061778;28;20028;-83
2023/01/30 11:14:55;;;;;;;25.80;13.70;;;-1.80;99.90;;;;;;5061859;28;20066;-84
2023/01/30 11:17:27;;;;;;;27.02;14.07;;;-1.80;99.90;;;;;;5062284;28;20378;-83
2023/01/30 11:20:00;;;;;;;32.03;15.50;;;-1.80;99.90;;;;;;5059964;28;20517;-84
2023/01/30 11:22:29;;;;;;;31.75;16.50;;;-1.80;99.90;;;;;;5059503;28;20043;-83
2023/01/30 11:25:13;;;;;;;28.98;15.18;;;-1.80;99.90;;;;;;5062209;28;20044;-83
2023/01/30 11:27:41;;;;;;;36.90;18.08;;;-1.90;99.90;;;;;;5061151;28;20017;-83
2023/01/30 11:30:16;;;;;;;43.90;23.20;;;-1.90;99.90;;;;;;5063140;28;20033;-83
2023/01/30 11:32:43;;;;;;;37.67;18.02;;;-1.80;99.90;;;;;;5061713;28;20497;-83
2023/01/30 11:35:09;;;;;;;33.70;16.98;;;-1.80;99.90;;;;;;5060355;28;20486;-83
2023/01/30 11:37:37;;;;;;;40.63;16.80;;;-1.80;99.90;;;;;;5058718;28;20021;-83
2023/01/30 11:40:24;;;;;;;58.05;26.15;;;-1.80;99.90;;;;;;5061980;28;20043;-83
2023/01/30 11:42:57;;;;;;;29.30;15.15;;;-1.80;99.90;;;;;;5062705;28;20017;-86
2023/01/30 11:45:25;;;;;;;34.83;16.38;;;-1.90;99.90;;;;;;5060116;28;20044;-86
2023/01/30 11:47:58;;;;;;;46.75;20.33;;;-1.90;99.90;;;;;;5061477;28;20459;-86
2023/01/30 11:50:27;;;;;;;;;;;-1.80;99.90;;;;;;5058611;28;20041;-86
2023/01/30 11:52:53;;;;;;;53.17;23.08;;;-1.80;99.90;;;;;;5061518;28;19975;-84
2023/01/30 11:55:20;;;;;;;60.92;26.67;;;-1.70;99.90;;;;;;5059952;28;20032;-83
2023/01/30 11:57:53;;;;;;;64.25;27.33;;;-1.70;99.90;;;;;;5062529;28;20390;-84
2023/01/30 12:00:28;;;;;;;43.75;21.85;;;-1.60;99.90;;;;;;5059058;28;20037;-83
2023/01/30 12:03:01;;;;;;;79.32;37.25;;;-1.60;99.90;;;;;;5052836;28;20099;-84
2023/01/30 12:05:31;;;;;;;;;;;-1.60;99.90;;;;;;5050653;28;20055;-83
2023/01/30 12:08:20;;;;;;;39.35;17.83;;;-1.50;99.90;;;;;;5050943;28;20366;-84
2023/01/30 12:10:49;;;;;;;49.60;24.10;;;-1.50;99.90;;;;;;5056113;28;20077;-85
2023/01/30 12:13:27;;;;;;;53.20;22.77;;;-1.60;99.90;;;;;;5073269;28;20078;-84
2023/01/30 12:16:13;;;;;;;45.50;22.50;;;-1.50;99.90;;;;;;5071571;28;20052;-84
2023/01/30 12:18:59;;;;;;;69.78;33.67;;;-1.60;99.90;;;;;;5071779;28;20065;-86
2023/01/30 12:21:48;;;;;;;39.40;19.30;;;-1.60;99.90;;;;;;5071811;28;20024;-85
2023/01/30 12:24:23;;;;;;;32.33;17.15;;;-1.50;99.90;;;;;;5072631;28;20072;-84
2023/01/30 12:27:03;;;;;;;32.67;15.63;;;-1.60;99.90;;;;;;5072880;28;20020;-83
2023/01/30 12:29:36;;;;;;;27.55;15.98;;;-1.60;99.90;;;;;;5072749;28;20021;-85
2023/01/30 12:32:17;;;;;;;29.67;15.95;;;-1.50;99.90;;;;;;5072612;28;20017;-85
2023/01/30 12:34:45;;;;;;;36.17;17.38;;;-1.50;99.90;;;;;;5073039;28;20100;-85
2023/01/30 12:37:26;;;;;;;38.00;18.10;;;-1.50;99.90;;;;;;5072594;28;20047;-84
2023/01/30 12:40:02;;;;;;;32.30;17.90;;;-1.50;99.90;;;;;;5072852;28;20024;-84
2023/01/30 12:43:05;;;;;;;31.83;16.77;;;-1.60;99.90;;;;;;5072543;28;20028;-83
2023/01/30 12:45:37;;;;;;;28.95;16.40;;;-1.60;99.90;;;;;;5072594;28;20071;-86
2023/01/30 12:48:36;;;;;;;25.75;16.40;;;-1.50;99.90;;;;;;5076430;28;20021;-84
2023/01/30 12:51:35;;;;;;;30.63;16.55;;;-1.50;99.90;;;;;;5067940;28;20039;-83